sensor_id;sensor_type;location;lat;lon;timestamp;pressure;altitude;pressure_sealevel;temperature;humidity
4570;BME280;2297;51.442;6.996;2023-02-23T00:01:48;99932.88;;;11.67;58.72
4570;BME280;2297;51.442;6.996;2023-02-23T00:04:15;99935.34;;;11.73;58.52
4570;BME280;2297;51.442;6.996;2023-02-23T00:06:43;99934.63;;;11.68;58.90
4570;BME280;2297;51.442;6.996;2023-02-23T00:09:10;99931.97;;;11.68;58.55
4570;BME280;2297;51.442;6.996;2023-02-23T00:11:48;99930.25;;;11.67;58.57
4570;BME280;2297;51.442;6.996;2023-02-23T00:14:15;99935.53;;;11.67;59.12
4570;BME280;2297;51.442;6.996;2023-02-23T00:16:41;99937.16;;;11.71;58.78
4570;BME280;2297;51.442;6.996;2023-02-23T00:19:10;99932.78;;;11.70;59.02
4570;BME280;2297;51.442;6.996;2023-02-23T00:21:39;99934.41;;;11.74;58.88
4570;BME280;2297;51.442;6.996;2023-02-23T00:24:07;99931.97;;;11.68;58.76
4570;BME280;2297;51.442;6.996;2023-02-23T00:26:36;99929.84;;;11.51;59.16
4570;BME280;2297;51.442;6.996;2023-02-23T00:29:06;99925.34;;;11.55;59.00
4570;BME280;2297;51.442;6.996;2023-02-23T00:31:33;99928.75;;;11.58;59.20
4570;BME280;2297;51.442;6.996;2023-02-23T00:34:03;99921.75;;;11.57;59.15
4570;BME280;2297;51.442;6.996;2023-02-23T00:36:32;99926.09;;;11.58;59.09
4570;BME280;2297;51.442;6.996;2023-02-23T00:39:02;99927.31;;;11.48;59.37
4570;BME280;2297;51.442;6.996;2023-02-23T00:41:41;99919.13;;;11.56;59.17
4570;BME280;2297;51.442;6.996;2023-02-23T00:44:09;99923.41;;;11.60;59.52
4570;BME280;2297;51.442;6.996;2023-02-23T00:46:35;99920.81;;;11.58;59.33
4570;BME280;2297;51.442;6.996;2023-02-23T00:49:02;99905.91;;;11.56;59.10
4570;BME280;2297;51.442;6.996;2023-02-23T00:51:29;99920.53;;;11.39;59.64
4570;BME280;2297;51.442;6.996;2023-02-23T00:53:58;99920.34;;;11.45;59.70
4570;BME280;2297;51.442;6.996;2023-02-23T00:56:28;99921.75;;;11.27;59.96
4570;BME280;2297;51.442;6.996;2023-02-23T00:58:55;99917.53;;;11.22;60.35
4570;BME280;2297;51.442;6.996;2023-02-23T01:01:23;99924.19;;;11.35;60.17
4570;BME280;2297;51.442;6.996;2023-02-23T01:03:50;99916.88;;;11.43;59.87
4570;BME280;2297;51.442;6.996;2023-02-23T01:06:17;99929.19;;;11.44;59.67
4570;BME280;2297;51.442;6.996;2023-02-23T01:08:47;99922.16;;;11.43;59.82
4570;BME280;2297;51.442;6.996;2023-02-23T01:11:17;99924.69;;;11.46;59.65
4570;BME280;2297;51.442;6.996;2023-02-23T01:13:46;99926.38;;;11.49;59.65
4570;BME280;2297;51.442;6.996;2023-02-23T01:16:16;99922.84;;;11.50;59.67
4570;BME280;2297;51.442;6.996;2023-02-23T01:18:45;99913.09;;;11.52;59.92
4570;BME280;2297;51.442;6.996;2023-02-23T01:21:15;99912.13;;;11.55;59.94
4570;BME280;2297;51.442;6.996;2023-02-23T01:23:42;99914.56;;;11.61;59.85
4570;BME280;2297;51.442;6.996;2023-02-23T01:26:16;99920.84;;;11.57;59.82
4570;BME280;2297;51.442;6.996;2023-02-23T01:28:43;99920.75;;;11.60;59.59
4570;BME280;2297;51.442;6.996;2023-02-23T01:31:13;99923.50;;;11.57;59.77
4570;BME280;2297;51.442;6.996;2023-02-23T01:33:39;99921.59;;;11.62;59.27
4570;BME280;2297;51.442;6.996;2023-02-23T01:36:08;99922.50;;;11.61;59.31
4570;BME280;2297;51.442;6.996;2023-02-23T01:38:35;99918.09;;;11.60;59.41
4570;BME280;2297;51.442;6.996;2023-02-23T01:41:02;99928.63;;;11.63;59.29
4570;BME280;2297;51.442;6.996;2023-02-23T01:43:29;99921.59;;;11.62;59.23
4570;BME280;2297;51.442;6.996;2023-02-23T01:45:56;99928.63;;;11.63;59.48
4570;BME280;2297;51.442;6.996;2023-02-23T01:48:24;99925.06;;;11.64;58.97
4570;BME280;2297;51.442;6.996;2023-02-23T01:50:55;99921.47;;;11.67;58.48
4570;BME280;2297;51.442;6.996;2023-02-23T01:53:26;99921.69;;;11.59;58.53
4570;BME280;2297;51.442;6.996;2023-02-23T01:55:56;99925.13;;;11.61;58.71
4570;BME280;2297;51.442;6.996;2023-02-23T01:58:24;99923.41;;;11.60;59.01
4570;BME280;2297;51.442;6.996;2023-02-23T02:00:55;99918.03;;;11.63;59.03
4570;BME280;2297;51.442;6.996;2023-02-23T02:03:25;99919.84;;;11.61;58.85
4570;BME280;2297;51.442;6.996;2023-02-23T02:05:54;99921.69;;;11.59;58.91
4570;BME280;2297;51.442;6.996;2023-02-23T02:08:23;99914.66;;;11.58;58.80
4570;BME280;2297;51.442;6.996;2023-02-23T02:10:51;99919.13;;;11.56;58.85
4570;BME280;2297;51.442;6.996;2023-02-23T02:13:22;99916.28;;;11.62;58.59
4570;BME280;2297;51.442;6.996;2023-02-23T02:19:20;99915.81;;;11.49;58.66
4570;BME280;2297;51.442;6.996;2023-02-23T02:22:18;99921.31;;;11.43;58.66
4570;BME280;2297;51.442;6.996;2023-02-23T02:28:28;99915.06;;;11.45;58.37
4570;BME280;2297;51.442;6.996;2023-02-23T02:37:25;99911.19;;;11.56;58.35
4570;BME280;2297;51.442;6.996;2023-02-23T02:40:03;99911.19;;;11.56;58.46
4570;BME280;2297;51.442;6.996;2023-02-23T02:42:59;99913.22;;;11.47;58.60
4570;BME280;2297;51.442;6.996;2023-02-23T02:45:38;99909.56;;;11.52;58.84
4570;BME280;2297;51.442;6.996;2023-02-23T02:48:14;99908.66;;;11.53;58.58
4570;BME280;2297;51.442;6.996;2023-02-23T02:50:46;99912.16;;;11.53;58.45
4570;BME280;2297;51.442;6.996;2023-02-23T02:53:23;99900.72;;;11.53;58.52
4570;BME280;2297;51.442;6.996;2023-02-23T02:55:52;99907.75;;;11.54;58.36
4570;BME280;2297;51.442;6.996;2023-02-23T02:58:21;99898.91;;;11.55;58.22
4570;BME280;2297;51.442;6.996;2023-02-23T03:00:50;99902.00;;;11.39;58.67
4570;BME280;2297;51.442;6.996;2023-02-23T03:03:36;99908.31;;;11.35;58.64
4570;BME280;2297;51.442;6.996;2023-02-23T03:06:24;99906.47;;;11.37;58.58
4570;BME280;2297;51.442;6.996;2023-02-23T03:09:19;99897.72;;;11.35;58.80
4570;BME280;2297;51.442;6.996;2023-02-23T03:12:10;99897.56;;;11.40;58.94
4570;BME280;2297;51.442;6.996;2023-02-23T03:15:04;99915.22;;;11.39;59.02
4570;BME280;2297;51.442;6.996;2023-02-23T03:17:56;99900.28;;;11.38;58.88
4570;BME280;2297;51.442;6.996;2023-02-23T03:20:46;99917.03;;;11.37;58.84
4570;BME280;2297;51.442;6.996;2023-02-23T03:23:40;99911.69;;;11.40;58.88
4570;BME280;2297;51.442;6.996;2023-02-23T03:26:31;99914.50;;;11.34;58.58
4570;BME280;2297;51.442;6.996;2023-02-23T03:29:24;99907.72;;;11.25;59.03
4570;BME280;2297;51.442;6.996;2023-02-23T03:32:16;99913.16;;;11.21;59.13
4570;BME280;2297;51.442;6.996;2023-02-23T03:35:05;99917.31;;;11.28;59.00
4570;BME280;2297;51.442;6.996;2023-02-23T03:37:54;99915.50;;;11.30;58.84
4570;BME280;2297;51.442;6.996;2023-02-23T03:40:41;99913.72;;;11.30;59.20
4570;BME280;2297;51.442;6.996;2023-02-23T03:43:32;99919.13;;;11.27;58.98
4570;BME280;2297;51.442;6.996;2023-02-23T03:46:19;99913.94;;;11.23;59.07
4570;BME280;2297;51.442;6.996;2023-02-23T03:49:06;99916.97;;;11.10;59.39
4570;BME280;2297;51.442;6.996;2023-02-23T03:51:57;99911.78;;;11.06;59.63
4570;BME280;2297;51.442;6.996;2023-02-23T03:54:46;99917.84;;;11.09;59.85
4570;BME280;2297;51.442;6.996;2023-02-23T03:57:34;99918.09;;;11.00;59.94
4570;BME280;2297;51.442;6.996;2023-02-23T04:00:26;99916.13;;;11.08;59.63
4570;BME280;2297;51.442;6.996;2023-02-23T04:03:12;99915.34;;;11.05;59.64
4570;BME280;2297;51.442;6.996;2023-02-23T04:09:20;99915.44;;;11.02;59.93
4570;BME280;2297;51.442;6.996;2023-02-23T04:12:06;99917.19;;;11.01;59.85
4570;BME280;2297;51.442;6.996;2023-02-23T04:14:56;99920.09;;;10.92;60.05
4570;BME280;2297;51.442;6.996;2023-02-23T04:17:27;99924.38;;;10.96;60.27
4570;BME280;2297;51.442;6.996;2023-02-23T04:19:55;99923.47;;;10.97;59.98
4570;BME280;2297;51.442;6.996;2023-02-23T04:22:22;99924.31;;;10.99;60.28
4570;BME280;2297;51.442;6.996;2023-02-23T04:24:49;99926.97;;;10.97;60.09
4570;BME280;2297;51.442;6.996;2023-02-23T04:27:16;99930.59;;;10.95;60.49
4570;BME280;2297;51.442;6.996;2023-02-23T04:29:43;99931.88;;;10.80;60.13
4570;BME280;2297;51.442;6.996;2023-02-23T04:32:12;99930.41;;;10.70;60.38
4570;BME280;2297;51.442;6.996;2023-02-23T04:34:41;99934.47;;;10.81;60.35
4570;BME280;2297;51.442;6.996;2023-02-23T04:37:07;99936.31;;;10.79;60.09
4570;BME280;2297;51.442;6.996;2023-02-23T04:39:34;99936.41;;;10.75;60.23
4570;BME280;2297;51.442;6.996;2023-02-23T04:42:01;99936.47;;;10.73;60.11
4570;BME280;2297;51.442;6.996;2023-02-23T04:44:27;99939.25;;;10.69;60.00
4570;BME280;2297;51.442;6.996;2023-02-23T04:46:55;99930.50;;;10.67;60.21
4570;BME280;2297;51.442;6.996;2023-02-23T04:49:22;99936.41;;;10.76;60.33
4570;BME280;2297;51.442;6.996;2023-02-23T04:51:50;99931.19;;;10.73;60.17
4570;BME280;2297;51.442;6.996;2023-02-23T04:54:17;99936.41;;;10.76;60.13
4570;BME280;2297;51.442;6.996;2023-02-23T04:56:43;99942.53;;;10.77;60.27
4570;BME280;2297;51.442;6.996;2023-02-23T04:59:10;99941.75;;;10.73;60.19
4570;BME280;2297;51.442;6.996;2023-02-23T05:01:37;99938.47;;;10.65;60.37
4570;BME280;2297;51.442;6.996;2023-02-23T05:04:04;99937.25;;;10.77;60.26
4570;BME280;2297;51.442;6.996;2023-02-23T05:06:31;99938.84;;;10.82;59.97
4570;BME280;2297;51.442;6.996;2023-02-23T05:08:59;99939.94;;;10.75;60.12
4570;BME280;2297;51.442;6.996;2023-02-23T05:11:27;99937.16;;;10.80;60.25
4570;BME280;2297;51.442;6.996;2023-02-23T05:13:54;99936.91;;;10.89;60.26
4570;BME280;2297;51.442;6.996;2023-02-23T05:16:20;99941.59;;;10.79;59.94
4570;BME280;2297;51.442;6.996;2023-02-23T05:18:47;99941.59;;;10.79;60.03
4570;BME280;2297;51.442;6.996;2023-02-23T05:21:14;99943.50;;;10.74;59.72
4570;BME280;2297;51.442;6.996;2023-02-23T05:23:41;99946.97;;;10.76;60.14
4570;BME280;2297;51.442;6.996;2023-02-23T05:26:11;99945.97;;;10.80;59.96
4570;BME280;2297;51.442;6.996;2023-02-23T05:28:40;99952.00;;;10.86;60.08
4570;BME280;2297;51.442;6.996;2023-02-23T05:34:35;99952.97;;;10.81;59.81
4570;BME280;2297;51.442;6.996;2023-02-23T05:37:03;99946.78;;;10.82;60.00
4570;BME280;2297;51.442;6.996;2023-02-23T05:39:30;99952.00;;;10.86;60.09
4570;BME280;2297;51.442;6.996;2023-02-23T05:41:58;99955.44;;;10.88;59.57
4570;BME280;2297;51.442;6.996;2023-02-23T05:44:25;99950.06;;;10.91;59.61
4570;BME280;2297;51.442;6.996;2023-02-23T05:46:51;99955.34;;;10.91;59.36
4570;BME280;2297;51.442;6.996;2023-02-23T05:49:18;99954.66;;;10.84;59.54
4570;BME280;2297;51.442;6.996;2023-02-23T05:51:45;99948.38;;;10.90;59.14
4570;BME280;2297;51.442;6.996;2023-02-23T05:54:11;99943.84;;;10.93;59.41
4570;BME280;2297;51.442;6.996;2023-02-23T05:56:38;99953.53;;;10.93;59.52
4570;BME280;2297;51.442;6.996;2023-02-23T05:59:06;99950.69;;;11.01;59.46
4570;BME280;2297;51.442;6.996;2023-02-23T06:01:33;99951.47;;;11.04;59.22
4570;BME280;2297;51.442;6.996;2023-02-23T06:04:00;99954.13;;;11.04;58.93
4570;BME280;2297;51.442;6.996;2023-02-23T06:06:26;99956.78;;;11.04;58.72
4570;BME280;2297;51.442;6.996;2023-02-23T06:08:53;99958.47;;;11.05;58.97
4570;BME280;2297;51.442;6.996;2023-02-23T06:11:20;99953.19;;;11.05;58.78
4570;BME280;2297;51.442;6.996;2023-02-23T06:13:46;99956.78;;;11.04;58.79
4570;BME280;2297;51.442;6.996;2023-02-23T06:16:15;99958.66;;;10.99;59.14
4570;BME280;2297;51.442;6.996;2023-02-23T06:18:41;99966.66;;;10.96;58.83
4570;BME280;2297;51.442;6.996;2023-02-23T06:21:08;99963.06;;;10.98;59.09
4570;BME280;2297;51.442;6.996;2023-02-23T06:23:35;99964.84;;;10.98;59.25
4570;BME280;2297;51.442;6.996;2023-02-23T06:26:02;99971.84;;;11.01;59.24
4570;BME280;2297;51.442;6.996;2023-02-23T06:28:29;99962.91;;;11.05;59.63
4570;BME280;2297;51.442;6.996;2023-02-23T06:30:56;99970.09;;;11.00;59.52
4570;BME280;2297;51.442;6.996;2023-02-23T06:33:24;99977.91;;;11.04;59.59
4570;BME280;2297;51.442;6.996;2023-02-23T06:35:51;99978.63;;;11.09;59.61
4570;BME280;2297;51.442;6.996;2023-02-23T06:38:19;99984.41;;;10.92;59.67
4570;BME280;2297;51.442;6.996;2023-02-23T06:40:45;99979.44;;;10.80;60.05
4570;BME280;2297;51.442;6.996;2023-02-23T06:43:12;99981.50;;;10.69;60.57
4570;BME280;2297;51.442;6.996;2023-02-23T06:45:38;99991.13;;;10.71;60.47
4570;BME280;2297;51.442;6.996;2023-02-23T06:48:06;99997.88;;;10.81;60.56
4570;BME280;2297;51.442;6.996;2023-02-23T06:50:34;99998.56;;;10.88;60.34
4570;BME280;2297;51.442;6.996;2023-02-23T06:53:00;99995.13;;;10.86;60.36
4570;BME280;2297;51.442;6.996;2023-02-23T06:55:27;100000.56;;;10.80;60.24
4570;BME280;2297;51.442;6.996;2023-02-23T06:57:54;100006.97;;;10.71;60.53
4570;BME280;2297;51.442;6.996;2023-02-23T07:00:21;100007.53;;;10.82;60.11
4570;BME280;2297;51.442;6.996;2023-02-23T07:02:48;100006.72;;;10.80;60.17
4570;BME280;2297;51.442;6.996;2023-02-23T07:05:15;100014.72;;;10.77;60.35
4570;BME280;2297;51.442;6.996;2023-02-23T07:07:43;100012.00;;;10.80;60.22
4570;BME280;2297;51.442;6.996;2023-02-23T07:10:10;100009.38;;;10.79;60.08
4570;BME280;2297;51.442;6.996;2023-02-23T07:15:59;100017.69;;;10.65;60.30
4570;BME280;2297;51.442;6.996;2023-02-23T07:18:26;100021.22;;;10.64;60.30
4570;BME280;2297;51.442;6.996;2023-02-23T07:20:52;100022.06;;;10.66;60.52
4570;BME280;2297;51.442;6.996;2023-02-23T07:23:20;100022.03;;;10.68;60.63
4570;BME280;2297;51.442;6.996;2023-02-23T07:25:49;100022.25;;;10.58;60.53
4570;BME280;2297;51.442;6.996;2023-02-23T07:28:16;100023.91;;;10.62;60.56
4570;BME280;2297;51.442;6.996;2023-02-23T07:30:43;100025.66;;;10.63;60.58
4570;BME280;2297;51.442;6.996;2023-02-23T07:33:09;100035.50;;;10.57;60.84
4570;BME280;2297;51.442;6.996;2023-02-23T07:35:36;100027.78;;;10.49;61.33
4570;BME280;2297;51.442;6.996;2023-02-23T07:38:03;100031.22;;;10.53;61.17
4570;BME280;2297;51.442;6.996;2023-02-23T07:40:33;100034.66;;;10.55;60.94
4570;BME280;2297;51.442;6.996;2023-02-23T07:42:59;100034.00;;;10.46;61.26
4570;BME280;2297;51.442;6.996;2023-02-23T07:45:26;100038.25;;;10.52;61.19
4570;BME280;2297;51.442;6.996;2023-02-23T07:47:52;100037.38;;;10.52;61.09
4570;BME280;2297;51.442;6.996;2023-02-23T07:50:19;100040.63;;;10.63;61.16
4570;BME280;2297;51.442;6.996;2023-02-23T07:52:46;100045.66;;;10.72;60.95
4570;BME280;2297;51.442;6.996;2023-02-23T07:55:13;100054.75;;;10.62;60.67
4570;BME280;2297;51.442;6.996;2023-02-23T07:57:41;100051.56;;;10.47;60.43
4570;BME280;2297;51.442;6.996;2023-02-23T08:00:08;100053.22;;;10.52;60.24
4570;BME280;2297;51.442;6.996;2023-02-23T08:02:35;100053.38;;;10.45;60.50
4570;BME280;2297;51.442;6.996;2023-02-23T08:05:02;100061.25;;;10.48;60.31
4570;BME280;2297;51.442;6.996;2023-02-23T08:07:30;100059.31;;;10.54;60.18
4570;BME280;2297;51.442;6.996;2023-02-23T08:09:57;100063.78;;;10.52;60.22
4570;BME280;2297;51.442;6.996;2023-02-23T08:12:24;100065.91;;;10.37;60.01
4570;BME280;2297;51.442;6.996;2023-02-23T08:14:52;100067.47;;;10.46;60.31
4570;BME280;2297;51.442;6.996;2023-02-23T08:17:22;100070.81;;;10.53;60.11
4570;BME280;2297;51.442;6.996;2023-02-23T08:19:48;100070.81;;;10.53;60.12
4570;BME280;2297;51.442;6.996;2023-02-23T08:22:15;100074.19;;;10.59;60.01
4570;BME280;2297;51.442;6.996;2023-02-23T08:24:42;100070.38;;;10.71;59.94
4570;BME280;2297;51.442;6.996;2023-02-23T08:27:08;100075.84;;;10.63;59.22
4570;BME280;2297;51.442;6.996;2023-02-23T08:29:35;100074.72;;;10.72;59.06
4570;BME280;2297;51.442;6.996;2023-02-23T08:32:04;100086.91;;;10.78;59.43
4570;BME280;2297;51.442;6.996;2023-02-23T08:34:37;100085.00;;;10.85;59.23
4570;BME280;2297;51.442;6.996;2023-02-23T08:37:03;100086.50;;;10.93;58.97
4570;BME280;2297;51.442;6.996;2023-02-23T08:39:30;100083.19;;;10.85;58.54
4570;BME280;2297;51.442;6.996;2023-02-23T08:41:57;100085.88;;;10.84;58.26
4570;BME280;2297;51.442;6.996;2023-02-23T08:44:24;100093.91;;;10.80;58.24
4570;BME280;2297;51.442;6.996;2023-02-23T08:46:50;100100.16;;;10.76;58.19
4570;BME280;2297;51.442;6.996;2023-02-23T08:49:19;100097.34;;;10.82;58.06
4570;BME280;2297;51.442;6.996;2023-02-23T08:51:46;100098.94;;;10.90;58.22
4570;BME280;2297;51.442;6.996;2023-02-23T08:54:12;100098.03;;;10.91;58.04
4570;BME280;2297;51.442;6.996;2023-02-23T08:56:40;100098.03;;;10.91;58.28
4570;BME280;2297;51.442;6.996;2023-02-23T08:59:07;100102.31;;;10.96;57.92
4570;BME280;2297;51.442;6.996;2023-02-23T09:01:34;100095.06;;;11.03;57.71
4570;BME280;2297;51.442;6.996;2023-02-23T09:04:01;100093.97;;;11.13;57.75
4570;BME280;2297;51.442;6.996;2023-02-23T09:06:30;100102.81;;;11.09;57.37
4570;BME280;2297;51.442;6.996;2023-02-23T09:08:59;100103.00;;;11.03;57.28
4570;BME280;2297;51.442;6.996;2023-02-23T09:11:27;100098.53;;;11.05;57.14
4570;BME280;2297;51.442;6.996;2023-02-23T09:13:53;100105.50;;;11.08;57.29
4570;BME280;2297;51.442;6.996;2023-02-23T09:16:20;100115.31;;;11.04;57.72
4570;BME280;2297;51.442;6.996;2023-02-23T09:18:46;100109.81;;;11.13;57.91
4570;BME280;2297;51.442;6.996;2023-02-23T09:21:15;100100.81;;;11.21;57.37
4570;BME280;2297;51.442;6.996;2023-02-23T09:23:46;100114.84;;;11.23;57.03
4570;BME280;2297;51.442;6.996;2023-02-23T09:26:15;100107.69;;;11.26;56.56
4570;BME280;2297;51.442;6.996;2023-02-23T09:28:51;100114.53;;;11.35;56.80
4570;BME280;2297;51.442;6.996;2023-02-23T09:31:20;100112.00;;;11.30;56.80
4570;BME280;2297;51.442;6.996;2023-02-23T09:34:15;100111.19;;;11.28;56.80
4570;BME280;2297;51.442;6.996;2023-02-23T09:36:42;100113.03;;;11.25;56.67
4570;BME280;2297;51.442;6.996;2023-02-23T09:39:10;100113.03;;;11.25;56.61
4570;BME280;2297;51.442;6.996;2023-02-23T09:41:55;100127.47;;;11.11;56.85
4570;BME280;2297;51.442;6.996;2023-02-23T09:44:41;100125.06;;;11.02;57.11
4570;BME280;2297;51.442;6.996;2023-02-23T09:47:24;100121.31;;;11.09;57.26
4570;BME280;2297;51.442;6.996;2023-02-23T09:49:56;100126.63;;;11.11;56.89
4570;BME280;2297;51.442;6.996;2023-02-23T09:52:35;100124.84;;;11.11;57.27
4570;BME280;2297;51.442;6.996;2023-02-23T09:55:05;100129.22;;;11.12;57.26
4570;BME280;2297;51.442;6.996;2023-02-23T09:57:37;100131.09;;;11.07;56.95
4570;BME280;2297;51.442;6.996;2023-02-23T10:00:13;100132.00;;;11.06;57.63
4570;BME280;2297;51.442;6.996;2023-02-23T10:02:54;100130.13;;;11.11;57.19
4570;BME280;2297;51.442;6.996;2023-02-23T10:05:25;100131.03;;;11.10;56.76
4570;BME280;2297;51.442;6.996;2023-02-23T10:08:00;100139.81;;;11.12;57.27
4570;BME280;2297;51.442;6.996;2023-02-23T10:10:37;100146.88;;;11.10;57.17
4570;BME280;2297;51.442;6.996;2023-02-23T10:13:14;100146.88;;;11.10;56.98
4570;BME280;2297;51.442;6.996;2023-02-23T10:15:46;100145.56;;;10.91;57.59
4570;BME280;2297;51.442;6.996;2023-02-23T10:18:23;100157.06;;;10.90;58.03
4570;BME280;2297;51.442;6.996;2023-02-23T10:21:00;100157.84;;;10.95;57.87
4570;BME280;2297;51.442;6.996;2023-02-23T10:23:30;100149.91;;;10.95;57.65
4570;BME280;2297;51.442;6.996;2023-02-23T10:26:01;100158.78;;;10.92;57.55
4570;BME280;2297;51.442;6.996;2023-02-23T10:28:33;100165.38;;;10.74;57.86
4570;BME280;2297;51.442;6.996;2023-02-23T10:33:46;100160.88;;;10.78;58.14
4570;BME280;2297;51.442;6.996;2023-02-23T10:36:17;100167.88;;;10.79;58.22
4570;BME280;2297;51.442;6.996;2023-02-23T10:38:44;100166.94;;;10.83;58.40
4570;BME280;2297;51.442;6.996;2023-02-23T10:41:13;100167.03;;;10.78;58.07
4570;BME280;2297;51.442;6.996;2023-02-23T10:43:39;100166.22;;;10.76;58.09
4570;BME280;2297;51.442;6.996;2023-02-23T10:46:10;100167.09;;;10.75;57.65
4570;BME280;2297;51.442;6.996;2023-02-23T10:48:42;100166.94;;;10.81;58.31
4570;BME280;2297;51.442;6.996;2023-02-23T10:51:15;100166.25;;;10.73;57.89
4570;BME280;2297;51.442;6.996;2023-02-23T10:53:58;100167.91;;;10.77;57.82
4570;BME280;2297;51.442;6.996;2023-02-23T10:56:26;100166.22;;;10.75;57.86
4570;BME280;2297;51.442;6.996;2023-02-23T10:58:58;100174.22;;;10.32;58.55
4570;BME280;2297;51.442;6.996;2023-02-23T11:01:33;100183.84;;;10.35;58.63
4570;BME280;2297;51.442;6.996;2023-02-23T11:04:12;100170.72;;;10.32;58.86
4570;BME280;2297;51.442;6.996;2023-02-23T11:06:41;100176.78;;;10.37;58.85
4570;BME280;2297;51.442;6.996;2023-02-23T11:09:25;100172.56;;;10.28;58.58
4570;BME280;2297;51.442;6.996;2023-02-23T11:11:58;100174.00;;;10.43;58.38
4570;BME280;2297;51.442;6.996;2023-02-23T11:14:29;100174.78;;;10.48;57.67
4570;BME280;2297;51.442;6.996;2023-02-23T11:16:57;100176.44;;;10.53;57.43
4570;BME280;2297;51.442;6.996;2023-02-23T11:19:28;100177.03;;;10.64;56.86
4570;BME280;2297;51.442;6.996;2023-02-23T11:21:58;100178.88;;;10.62;57.13
4570;BME280;2297;51.442;6.996;2023-02-23T11:24:27;100178.03;;;10.60;56.96
4570;BME280;2297;51.442;6.996;2023-02-23T11:26:58;100178.31;;;10.47;57.15
4570;BME280;2297;51.442;6.996;2023-02-23T11:29:31;100184.53;;;10.45;56.94
4570;BME280;2297;51.442;6.996;2023-02-23T11:32:02;100179.84;;;10.58;57.18
4570;BME280;2297;51.442;6.996;2023-02-23T11:34:34;100174.47;;;10.61;56.87
4570;BME280;2297;51.442;6.996;2023-02-23T11:37:07;100166.56;;;10.61;56.81
4570;BME280;2297;51.442;6.996;2023-02-23T11:39:50;100170.06;;;10.61;56.86
4570;BME280;2297;51.442;6.996;2023-02-23T11:42:20;100180.25;;;10.39;56.99
4570;BME280;2297;51.442;6.996;2023-02-23T11:44:50;100176.31;;;10.18;57.79
4570;BME280;2297;51.442;6.996;2023-02-23T11:47:18;100176.31;;;10.18;57.48
4570;BME280;2297;51.442;6.996;2023-02-23T11:49:48;100177.63;;;10.38;56.99
4570;BME280;2297;51.442;6.996;2023-02-23T11:52:17;100171.50;;;10.37;57.21
4570;BME280;2297;51.442;6.996;2023-02-23T11:54:51;100172.06;;;10.52;57.17
4570;BME280;2297;51.442;6.996;2023-02-23T11:57:22;100174.63;;;10.55;57.32
4570;BME280;2297;51.442;6.996;2023-02-23T11:59:50;100176.19;;;10.63;57.00
4570;BME280;2297;51.442;6.996;2023-02-23T12:02:22;100173.47;;;10.67;56.96
4570;BME280;2297;51.442;6.996;2023-02-23T12:04:50;100182.06;;;10.75;56.83
4570;BME280;2297;51.442;6.996;2023-02-23T12:07:28;100173.41;;;10.68;56.50
4570;BME280;2297;51.442;6.996;2023-02-23T12:10:11;100166.38;;;10.69;56.48
4570;BME280;2297;51.442;6.996;2023-02-23T12:12:48;100169.69;;;10.77;56.28
4570;BME280;2297;51.442;6.996;2023-02-23T12:15:23;100163.56;;;10.76;55.75
4570;BME280;2297;51.442;6.996;2023-02-23T12:17:55;100162.94;;;10.65;55.64
4570;BME280;2297;51.442;6.996;2023-02-23T12:20:24;100156.09;;;10.56;55.52
4570;BME280;2297;51.442;6.996;2023-02-23T12:22:56;100154.94;;;10.68;55.46
4570;BME280;2297;51.442;6.996;2023-02-23T12:25:27;100150.78;;;10.58;55.45
4570;BME280;2297;51.442;6.996;2023-02-23T12:28:02;100150.19;;;10.45;56.06
4570;BME280;2297;51.442;6.996;2023-02-23T12:30:41;100162.69;;;10.38;55.93
4570;BME280;2297;51.442;6.996;2023-02-23T12:33:13;100164.16;;;10.50;56.01
4570;BME280;2297;51.442;6.996;2023-02-23T12:35:45;100166.63;;;10.58;55.55
4570;BME280;2297;51.442;6.996;2023-02-23T12:38:20;100167.16;;;10.72;55.73
4570;BME280;2297;51.442;6.996;2023-02-23T12:40:57;100165.53;;;10.67;55.90
4570;BME280;2297;51.442;6.996;2023-02-23T12:43:34;100170.94;;;10.62;55.98
4570;BME280;2297;51.442;6.996;2023-02-23T12:46:08;100162.81;;;10.71;55.97
4570;BME280;2297;51.442;6.996;2023-02-23T12:48:45;100170.94;;;10.62;56.09
4570;BME280;2297;51.442;6.996;2023-02-23T12:51:21;100180.72;;;10.18;56.25
4570;BME280;2297;51.442;6.996;2023-02-23T12:53:50;100167.31;;;10.27;56.16
4570;BME280;2297;51.442;6.996;2023-02-23T12:56:31;100171.50;;;10.37;56.33
4570;BME280;2297;51.442;6.996;2023-02-23T12:59:19;100172.34;;;10.39;56.42
4570;BME280;2297;51.442;6.996;2023-02-23T13:01:53;100165.78;;;10.56;55.96
4570;BME280;2297;51.442;6.996;2023-02-23T13:07:21;100161.53;;;10.50;56.19
4570;BME280;2297;51.442;6.996;2023-02-23T13:10:01;100160.44;;;10.59;55.86
4570;BME280;2297;51.442;6.996;2023-02-23T13:12:39;100161.19;;;10.64;55.86
4570;BME280;2297;51.442;6.996;2023-02-23T13:15:17;100169.28;;;10.58;55.77
4570;BME280;2297;51.442;6.996;2023-02-23T13:17:51;100167.53;;;10.57;55.86
4570;BME280;2297;51.442;6.996;2023-02-23T13:20:25;100166.56;;;10.61;55.71
4570;BME280;2297;51.442;6.996;2023-02-23T13:23:01;100171.19;;;10.50;55.52
4570;BME280;2297;51.442;6.996;2023-02-23T13:25:39;100169.28;;;10.58;55.45
4570;BME280;2297;51.442;6.996;2023-02-23T13:28:14;100167.56;;;10.55;55.74
4570;BME280;2297;51.442;6.996;2023-02-23T13:30:44;100171.06;;;10.56;55.20
4570;BME280;2297;51.442;6.996;2023-02-23T13:33:24;100177.28;;;10.53;55.27
4570;BME280;2297;51.442;6.996;2023-02-23T13:35:54;100168.72;;;10.42;54.97
4570;BME280;2297;51.442;6.996;2023-02-23T13:38:27;100174.47;;;10.61;54.35
4570;BME280;2297;51.442;6.996;2023-02-23T13:41:04;100175.47;;;10.57;54.35
4570;BME280;2297;51.442;6.996;2023-02-23T13:43:39;100179.63;;;10.67;54.00
4570;BME280;2297;51.442;6.996;2023-02-23T13:46:21;100180.75;;;10.57;53.77
4570;BME280;2297;51.442;6.996;2023-02-23T13:48:55;100186.22;;;10.47;54.22
4570;BME280;2297;51.442;6.996;2023-02-23T13:51:29;100178.19;;;10.52;53.93
4570;BME280;2297;51.442;6.996;2023-02-23T13:54:02;100181.81;;;10.48;54.01
4570;BME280;2297;51.442;6.996;2023-02-23T13:56:30;100176.44;;;10.53;54.26
4570;BME280;2297;51.442;6.996;2023-02-23T13:59:00;100179.09;;;10.51;54.53
4570;BME280;2297;51.442;6.996;2023-02-23T14:01:31;100177.38;;;10.50;54.48
4570;BME280;2297;51.442;6.996;2023-02-23T14:04:00;100168.69;;;10.45;54.43
4570;BME280;2297;51.442;6.996;2023-02-23T14:06:29;100167.72;;;10.49;54.27
4570;BME280;2297;51.442;6.996;2023-02-23T14:08:58;100171.38;;;10.43;54.55